createdAt,value
2019-01-24T00:01:46.891Z,49.60
2019-01-24T00:04:48.893Z,44.53
2019-01-24T00:07:50.991Z,55.83
2019-01-24T00:10:53.024Z,54.80
2019-01-24T00:13:55.126Z,53.13
2019-01-24T00:16:57.105Z,49.30
2019-01-24T00:19:59.129Z,34.17
2019-01-24T00:23:01.171Z,51.63
2019-01-24T00:26:06.284Z,39.97
2019-01-24T00:29:08.319Z,48.80
2019-01-24T00:32:10.377Z,45.37
2019-01-24T00:35:13.375Z,48.30
2019-01-24T00:38:15.487Z,51.57
2019-01-24T00:41:17.536Z,48.97
2019-01-24T00:44:19.573Z,47.37
2019-01-24T00:47:21.569Z,28.70
2019-01-24T00:50:24.157Z,48.97
2019-01-24T00:53:26.649Z,47.53
2019-01-24T00:56:28.693Z,41.23
2019-01-24T00:59:30.932Z,46.63
2019-01-24T01:02:32.918Z,28.63
2019-01-24T01:05:34.889Z,44.70
2019-01-24T01:08:44.182Z,36.77
2019-01-24T01:11:50.079Z,35.07
2019-01-24T01:14:53.517Z,30.70
2019-01-24T01:17:57.673Z,42.10
2019-01-24T01:21:01.992Z,50.03
2019-01-24T01:24:06.088Z,50.07
2019-01-24T01:27:09.747Z,46.07
2019-01-24T01:30:20.387Z,33.57
2019-01-24T01:33:23.166Z,46.60
2019-01-24T01:36:26.405Z,37.73
2019-01-24T01:39:29.954Z,46.80
2019-01-24T01:42:33.830Z,30.50
2019-01-24T01:45:36.605Z,42.13
2019-01-24T01:48:38.910Z,46.67
2019-01-24T01:51:40.930Z,46.33
2019-01-24T01:54:44.438Z,43.90
2019-01-24T01:57:47.222Z,41.17
2019-01-24T02:00:49.970Z,40.77
2019-01-24T02:03:51.994Z,41.47
2019-01-24T02:06:53.983Z,48.80
2019-01-24T02:09:56.958Z,40.43
2019-01-24T02:13:01.035Z,46.10
2019-01-24T02:16:03.683Z,46.77
2019-01-24T02:19:05.791Z,46.13
2019-01-24T02:22:07.971Z,44.73
2019-01-24T02:25:10.203Z,38.03
2019-01-24T02:28:12.287Z,47.53
2019-01-24T02:31:14.321Z,49.90
2019-01-24T02:34:16.354Z,46.67
2019-01-24T02:37:18.335Z,55.07
2019-01-24T02:40:20.605Z,53.13
2019-01-24T02:43:22.595Z,48.73
2019-01-24T02:46:24.620Z,49.10
2019-01-24T02:49:26.634Z,34.07
2019-01-24T02:52:28.689Z,51.93
2019-01-24T02:55:32.491Z,51.97
2019-01-24T02:58:34.565Z,55.20
2019-01-24T03:01:36.635Z,51.90
2019-01-24T03:04:38.682Z,44.93
2019-01-24T03:07:40.694Z,43.43
2019-01-24T03:10:42.833Z,44.03
2019-01-24T03:13:44.817Z,37.53
2019-01-24T03:16:46.881Z,43.90
2019-01-24T03:19:48.871Z,43.80
2019-01-24T03:22:50.934Z,44.63
2019-01-24T03:25:52.932Z,42.63
2019-01-24T03:28:54.975Z,43.13
2019-01-24T03:31:57.001Z,51.00
2019-01-24T03:35:04.088Z,42.60
2019-01-24T03:38:03.171Z,47.63
2019-01-24T03:41:05.505Z,52.60
2019-01-24T03:44:07.446Z,55.70
2019-01-24T03:47:09.478Z,49.93
2019-01-24T03:50:14.198Z,47.10
2019-01-24T03:53:16.237Z,41.67
2019-01-24T03:56:18.289Z,40.87
2019-01-24T03:59:20.443Z,47.80
2019-01-24T04:02:22.461Z,44.60
2019-01-24T04:05:24.519Z,42.57
2019-01-24T04:08:26.512Z,47.23
2019-01-24T04:11:28.562Z,47.27
2019-01-24T04:14:30.520Z,47.33
2019-01-24T04:17:32.772Z,48.53
2019-01-24T04:20:34.761Z,53.90
2019-01-24T04:23:36.886Z,45.33
2019-01-24T04:26:38.889Z,44.77
2019-01-24T04:29:40.941Z,47.73
2019-01-24T04:32:43.091Z,47.53
2019-01-24T04:35:45.178Z,48.10
2019-01-24T04:38:47.201Z,53.97
2019-01-24T04:41:49.356Z,37.80
2019-01-24T04:44:51.357Z,43.97
2019-01-24T04:47:53.413Z,46.43
2019-01-24T04:50:55.390Z,41.93
2019-01-24T04:53:57.588Z,48.07
2019-01-24T04:56:59.730Z,43.97
2019-01-24T05:00:11.776Z,44.17
2019-01-24T05:03:13.911Z,44.13
2019-01-24T05:06:16.025Z,44.37
2019-01-24T05:09:18.023Z,47.93
2019-01-24T05:12:20.081Z,48.87
2019-01-24T05:15:22.059Z,37.33
2019-01-24T05:18:24.119Z,44.07
2019-01-24T05:21:26.139Z,51.73
2019-01-24T05:24:28.240Z,52.00
2019-01-24T05:27:30.861Z,42.70
2019-01-24T05:30:33.045Z,43.00
2019-01-24T05:33:35.028Z,42.17
2019-01-24T05:36:37.042Z,39.47
2019-01-24T05:39:38.995Z,54.80
2019-01-24T05:42:41.054Z,52.43
2019-01-24T05:45:43.048Z,42.83
2019-01-24T05:48:45.111Z,49.37
2019-01-24T05:51:47.088Z,50.50
2019-01-24T05:54:49.085Z,46.07
2019-01-24T05:57:51.031Z,51.13
2019-01-24T06:00:55.291Z,48.63
2019-01-24T06:03:57.548Z,60.70
2019-01-24T06:06:59.599Z,47.57
2019-01-24T06:10:01.624Z,43.03
2019-01-24T06:13:03.600Z,46.10
2019-01-24T06:16:05.558Z,48.47
2019-01-24T06:19:07.641Z,50.50
2019-01-24T06:22:09.594Z,41.77
2019-01-24T06:25:13.906Z,55.63
2019-01-24T06:28:15.920Z,51.37
2019-01-24T06:31:17.947Z,49.30
2019-01-24T06:34:19.886Z,48.03
2019-01-24T06:37:21.894Z,46.33
2019-01-24T06:40:24.102Z,41.83
2019-01-24T06:43:26.380Z,51.37
2019-01-24T06:46:28.316Z,37.43
2019-01-24T06:49:30.366Z,38.03
2019-01-24T06:52:32.342Z,28.47
2019-01-24T06:55:35.563Z,35.83
2019-01-24T06:58:37.536Z,49.30
2019-01-24T07:01:40.546Z,39.03
2019-01-24T07:04:42.480Z,40.30
2019-01-24T07:07:44.480Z,54.03
2019-01-24T07:10:46.459Z,45.23
2019-01-24T07:13:48.445Z,41.27
2019-01-24T07:16:50.376Z,49.20
2019-01-24T07:19:52.462Z,47.30
2019-01-24T07:22:54.358Z,42.67
2019-01-24T07:25:56.413Z,43.07
2019-01-24T07:28:58.404Z,43.20
2019-01-24T07:32:00.519Z,31.70
2019-01-24T07:35:04.927Z,49.23
2019-01-24T07:38:06.960Z,40.50
2019-01-24T07:41:08.899Z,40.97
2019-01-24T07:44:11.082Z,42.20
2019-01-24T07:47:15.078Z,25.37
2019-01-24T07:50:17.334Z,32.03
2019-01-24T07:53:19.422Z,42.73
2019-01-24T07:56:21.412Z,41.10
2019-01-24T07:59:23.371Z,41.73
2019-01-24T08:02:25.843Z,44.70
2019-01-24T08:05:29.401Z,50.57
2019-01-24T08:08:31.559Z,45.23
2019-01-24T08:11:33.564Z,47.63
2019-01-24T08:14:35.557Z,46.60
2019-01-24T08:17:37.526Z,52.63
2019-01-24T08:20:39.576Z,49.00
2019-01-24T08:23:41.551Z,45.27
2019-01-24T08:26:43.557Z,51.43
2019-01-24T08:29:45.464Z,50.60
2019-01-24T08:32:47.379Z,48.37
2019-01-24T08:35:49.522Z,44.50
2019-01-24T08:38:51.648Z,49.73
2019-01-24T08:41:53.581Z,50.33
2019-01-24T08:44:55.701Z,53.87
2019-01-24T08:47:58.118Z,52.03
2019-01-24T08:51:00.124Z,42.07
2019-01-24T08:54:02.096Z,44.83
2019-01-24T08:57:04.080Z,50.40
2019-01-24T09:00:09.660Z,41.47
2019-01-24T09:03:11.873Z,42.50
2019-01-24T09:06:15.491Z,53.57
2019-01-24T09:09:18.937Z,34.37
2019-01-24T09:12:23.032Z,41.20
2019-01-24T09:15:26.435Z,48.57
2019-01-24T09:18:28.405Z,44.13
2019-01-24T09:21:30.522Z,38.67
2019-01-24T09:24:32.541Z,40.13
2019-01-24T09:27:34.564Z,37.43
2019-01-24T09:30:36.481Z,31.13
2019-01-24T09:33:38.486Z,31.17
2019-01-24T09:36:41.375Z,30.30
2019-01-24T09:39:43.319Z,38.23
2019-01-24T09:42:45.521Z,34.47
2019-01-24T09:45:47.593Z,36.03
2019-01-24T09:48:49.535Z,36.17
2019-01-24T09:51:51.544Z,29.00
2019-01-24T09:54:53.567Z,35.03
2019-01-24T09:57:55.595Z,39.73
2019-01-24T10:00:57.560Z,46.00
2019-01-24T10:03:59.648Z,36.33
2019-01-24T10:07:01.611Z,29.20
2019-01-24T10:10:07.230Z,32.10
2019-01-24T10:13:09.191Z,28.23
2019-01-24T10:16:11.200Z,30.73
2019-01-24T10:19:13.168Z,27.50
2019-01-24T10:22:15.139Z,33.57
2019-01-24T10:25:20.459Z,31.63
2019-01-24T10:28:22.496Z,29.47
2019-01-24T10:31:24.515Z,34.03
2019-01-24T10:34:26.613Z,35.50
2019-01-24T10:37:28.537Z,27.97
2019-01-24T10:40:31.980Z,28.73
2019-01-24T10:43:33.967Z,38.10
2019-01-24T10:46:36.129Z,39.27
2019-01-24T10:49:38.135Z,30.97
2019-01-24T10:52:40.127Z,33.10
2019-01-24T10:55:42.245Z,36.47
2019-01-24T10:58:44.323Z,35.07
2019-01-24T11:01:46.355Z,34.00
2019-01-24T11:04:48.329Z,43.10
2019-01-24T11:07:50.734Z,39.23
2019-01-24T11:10:52.766Z,36.43
2019-01-24T11:13:54.716Z,38.73
2019-01-24T11:16:56.774Z,42.50
2019-01-24T11:19:58.703Z,36.77
2019-01-24T11:23:00.698Z,35.70
2019-01-24T11:26:02.674Z,34.83
2019-01-24T11:29:04.716Z,42.80
2019-01-24T11:32:06.689Z,40.90
2019-01-24T11:35:12.049Z,38.17
2019-01-24T11:38:13.990Z,39.30
2019-01-24T11:41:15.977Z,34.53
2019-01-24T11:44:17.935Z,32.77
2019-01-24T11:47:19.938Z,37.13
2019-01-24T11:50:21.833Z,37.10
2019-01-24T11:53:23.854Z,40.37
2019-01-24T11:56:25.822Z,31.63
2019-01-24T11:59:27.818Z,27.63
2019-01-24T12:02:29.853Z,35.20
2019-01-24T12:05:31.899Z,33.10
2019-01-24T12:08:34.430Z,32.87
2019-01-24T12:11:37.069Z,40.93
2019-01-24T12:14:38.993Z,32.33
2019-01-24T12:17:42.303Z,26.93
2019-01-24T12:20:44.396Z,28.07
2019-01-24T12:23:46.327Z,25.23
2019-01-24T12:26:48.298Z,32.70
2019-01-24T12:29:50.272Z,36.77
2019-01-24T12:32:52.253Z,40.27
2019-01-24T12:35:54.241Z,68.03
2019-01-24T12:38:56.212Z,53.77
2019-01-24T12:41:58.170Z,49.20
2019-01-24T12:45:00.210Z,32.37
2019-01-24T12:48:03.377Z,25.37
2019-01-24T12:51:05.326Z,28.03
2019-01-24T12:54:07.288Z,26.30
2019-01-24T12:57:09.211Z,35.37
2019-01-24T13:00:17.278Z,28.97
2019-01-24T13:03:19.241Z,28.93
2019-01-24T13:06:21.213Z,30.93
2019-01-24T13:09:23.629Z,27.03
2019-01-24T13:12:25.802Z,28.30
2019-01-24T13:15:30.135Z,28.37
2019-01-24T13:18:32.118Z,30.33
2019-01-24T13:21:34.178Z,50.93
2019-01-24T13:24:36.419Z,34.10
2019-01-24T13:27:38.488Z,30.60
2019-01-24T13:30:40.443Z,33.27
2019-01-24T13:33:42.445Z,33.40
2019-01-24T13:36:44.537Z,29.17
2019-01-24T13:39:46.528Z,38.40
2019-01-24T13:42:48.568Z,27.03
2019-01-24T13:45:50.570Z,30.63
2019-01-24T13:48:52.820Z,30.30
2019-01-24T13:51:54.771Z,25.40
2019-01-24T13:54:56.750Z,29.40
2019-01-24T13:57:58.654Z,24.07
2019-01-24T14:01:01.789Z,32.03
2019-01-24T14:04:08.704Z,22.70
2019-01-24T14:07:10.695Z,24.17
2019-01-24T14:10:15.879Z,24.93
2019-01-24T14:13:18.370Z,29.20
2019-01-24T14:16:20.329Z,27.53
2019-01-24T14:19:22.519Z,30.43
2019-01-24T14:22:24.529Z,32.20
2019-01-24T14:25:26.523Z,33.60
2019-01-24T14:28:28.524Z,29.77
2019-01-24T14:31:30.609Z,30.10
2019-01-24T14:34:32.575Z,36.43
2019-01-24T14:37:39.743Z,29.80
2019-01-24T14:40:39.134Z,37.07
2019-01-24T14:43:41.518Z,41.03
2019-01-24T14:46:43.477Z,40.07
2019-01-24T14:49:45.586Z,44.40
2019-01-24T14:52:47.543Z,38.37
2019-01-24T14:55:49.584Z,41.00
2019-01-24T14:58:51.480Z,39.23
2019-01-24T15:01:53.509Z,34.53
2019-01-24T15:04:55.452Z,37.93
2019-01-24T15:07:57.412Z,36.57
2019-01-24T15:10:59.890Z,36.13
2019-01-24T15:14:01.923Z,42.73
2019-01-24T15:17:03.890Z,30.17
2019-01-24T15:20:09.163Z,37.43
2019-01-24T15:23:11.096Z,41.57
2019-01-24T15:26:13.143Z,43.67
2019-01-24T15:29:15.171Z,36.97
2019-01-24T15:32:17.167Z,31.17
2019-01-24T15:35:19.148Z,35.77
2019-01-24T15:38:22.489Z,43.90
2019-01-24T15:41:24.596Z,33.70
2019-01-24T15:44:26.618Z,32.20
2019-01-24T15:47:28.647Z,29.23
2019-01-24T15:50:30.837Z,37.10
2019-01-24T15:53:32.843Z,34.07
2019-01-24T15:56:34.879Z,46.13
2019-01-24T15:59:36.840Z,39.60
2019-01-24T16:02:39.022Z,37.07
2019-01-24T16:05:41.114Z,41.17
2019-01-24T16:08:43.233Z,35.90
2019-01-24T16:11:45.516Z,33.27
2019-01-24T16:14:47.752Z,38.80
2019-01-24T16:17:49.740Z,33.63
2019-01-24T16:20:52.748Z,42.87
2019-01-24T16:23:54.704Z,44.93
2019-01-24T16:26:58.299Z,44.57
2019-01-24T16:30:01.696Z,41.53
2019-01-24T16:33:07.514Z,40.63
2019-01-24T16:36:13.170Z,42.00
2019-01-24T16:39:15.851Z,40.20
2019-01-24T16:42:19.186Z,37.20
2019-01-24T16:45:23.326Z,36.87
2019-01-24T16:48:25.327Z,42.00
2019-01-24T16:51:27.510Z,41.27
2019-01-24T16:54:29.837Z,46.57
2019-01-24T16:57:32.193Z,39.73
2019-01-24T17:00:37.650Z,45.20
2019-01-24T17:03:41.903Z,46.00
2019-01-24T17:06:44.133Z,41.83
2019-01-24T17:09:46.555Z,46.80
2019-01-24T17:12:50.328Z,43.33
2019-01-24T17:15:52.326Z,58.17
2019-01-24T17:18:54.308Z,70.27
2019-01-24T17:21:56.316Z,38.80
2019-01-24T17:24:58.302Z,43.43
2019-01-24T17:28:00.337Z,46.87
2019-01-24T17:31:02.429Z,47.70
2019-01-24T17:34:04.431Z,47.77
2019-01-24T17:37:06.356Z,55.03
2019-01-24T17:40:17.993Z,37.90
2019-01-24T17:43:21.802Z,43.43
2019-01-24T17:46:23.831Z,47.40
2019-01-24T17:49:25.812Z,39.63
2019-01-24T17:52:27.920Z,41.97
2019-01-24T17:55:35.872Z,46.87
2019-01-24T17:58:37.848Z,54.30
2019-01-24T18:01:39.805Z,39.53
2019-01-24T18:04:42.798Z,47.47
2019-01-24T18:07:46.366Z,45.13
2019-01-24T18:10:48.436Z,43.83
2019-01-24T18:13:50.923Z,46.00
2019-01-24T18:16:52.951Z,41.90
2019-01-24T18:19:54.958Z,50.90
2019-01-24T18:23:01.779Z,52.00
2019-01-24T18:26:04.250Z,56.53
2019-01-24T18:29:06.342Z,72.13
2019-01-24T18:32:09.838Z,59.93
2019-01-24T18:35:12.110Z,54.57
2019-01-24T18:38:14.092Z,52.00
2019-01-24T18:41:17.699Z,49.43
2019-01-24T18:44:21.333Z,44.30
2019-01-24T18:47:25.295Z,59.83
2019-01-24T18:50:27.765Z,57.10
2019-01-24T18:53:30.198Z,62.90
2019-01-24T18:56:32.279Z,65.63
2019-01-24T18:59:34.585Z,71.73
2019-01-24T19:02:36.524Z,65.90
2019-01-24T19:05:40.620Z,77.53
2019-01-24T19:08:45.986Z,157.37
2019-01-24T19:11:49.390Z,99.87
2019-01-24T19:14:52.758Z,91.53
2019-01-24T19:17:55.235Z,140.17
2019-01-24T19:20:57.476Z,234.60
2019-01-24T19:23:59.786Z,156.57
2019-01-24T19:27:02.033Z,142.87
2019-01-24T19:30:11.231Z,120.87
2019-01-24T19:33:13.495Z,186.17
2019-01-24T19:36:17.450Z,124.37
2019-01-24T19:39:24.176Z,101.20
2019-01-24T19:42:26.208Z,117.70
2019-01-24T19:45:28.681Z,155.57
2019-01-24T19:48:31.410Z,193.13
2019-01-24T19:51:35.285Z,119.70
2019-01-24T19:54:37.701Z,187.30
2019-01-24T19:57:41.175Z,153.07
2019-01-24T20:00:46.483Z,104.00
2019-01-24T20:03:50.241Z,114.37
2019-01-24T20:06:52.241Z,112.87
2019-01-24T20:09:55.084Z,96.00
2019-01-24T20:12:58.409Z,130.40
2019-01-24T20:16:04.049Z,67.93
2019-01-24T20:19:06.179Z,75.93
2019-01-24T20:22:10.804Z,78.20
2019-01-24T20:25:21.771Z,63.77
2019-01-24T20:28:25.533Z,65.87
2019-01-24T20:31:31.491Z,62.07
2019-01-24T20:34:37.588Z,58.57
2019-01-24T20:37:40.055Z,71.40
2019-01-24T20:40:42.024Z,56.73
2019-01-24T20:43:49.871Z,54.80
2019-01-24T20:46:52.204Z,56.60
2019-01-24T20:49:54.255Z,56.23
2019-01-24T20:52:56.728Z,44.97
2019-01-24T20:55:59.062Z,51.13
2019-01-24T20:59:04.623Z,44.53
2019-01-24T21:02:07.026Z,50.50
2019-01-24T21:05:10.730Z,50.27
2019-01-24T21:08:14.325Z,58.97
2019-01-24T21:11:16.333Z,68.63
2019-01-24T21:14:18.551Z,63.73
2019-01-24T21:17:20.763Z,68.30
2019-01-24T21:20:28.065Z,69.33
2019-01-24T21:23:30.046Z,64.63
2019-01-24T21:26:32.688Z,67.03
2019-01-24T21:29:34.675Z,67.73
2019-01-24T21:32:36.976Z,85.50
2019-01-24T21:35:38.929Z,64.13
2019-01-24T21:38:41.121Z,105.97
2019-01-24T21:41:44.363Z,67.53
2019-01-24T21:44:46.400Z,58.53
2019-01-24T21:47:48.407Z,60.40
2019-01-24T21:50:50.438Z,140.50
2019-01-24T21:53:54.186Z,92.40
2019-01-24T21:56:56.307Z,82.47
2019-01-24T21:59:58.302Z,60.07
2019-01-24T22:03:00.267Z,85.73
2019-01-24T22:06:02.259Z,95.87
2019-01-24T22:09:06.707Z,81.73
2019-01-24T22:12:08.836Z,63.97
2019-01-24T22:15:14.757Z,58.03
2019-01-24T22:18:18.474Z,70.97
2019-01-24T22:21:20.562Z,96.87
2019-01-24T22:24:23.815Z,53.33
2019-01-24T22:27:25.889Z,54.70
2019-01-24T22:30:35.767Z,49.87
2019-01-24T22:33:37.784Z,73.70
2019-01-24T22:36:39.709Z,46.43
2019-01-24T22:39:43.023Z,56.43
2019-01-24T22:42:45.153Z,52.50
2019-01-24T22:45:47.180Z,44.97
2019-01-24T22:48:49.122Z,54.00
2019-01-24T22:51:51.161Z,55.03
2019-01-24T22:54:53.111Z,52.10
2019-01-24T22:57:55.243Z,60.90
2019-01-24T23:01:03.530Z,64.10
2019-01-24T23:04:07.316Z,43.20
2019-01-24T23:07:09.333Z,44.83
2019-01-24T23:10:11.719Z,44.53
2019-01-24T23:13:13.646Z,49.53
2019-01-24T23:16:16.509Z,46.57
2019-01-24T23:19:19.359Z,43.20
2019-01-24T23:22:21.406Z,41.27
2019-01-24T23:25:23.363Z,42.07
2019-01-24T23:28:25.313Z,41.43
2019-01-24T23:31:27.277Z,48.10
2019-01-24T23:34:29.345Z,49.70
2019-01-24T23:37:31.296Z,41.97
2019-01-24T23:40:33.287Z,60.73
2019-01-24T23:43:35.268Z,58.30
2019-01-24T23:46:37.281Z,55.50
2019-01-24T23:49:39.272Z,53.63
2019-01-24T23:52:41.270Z,67.37
2019-01-24T23:55:43.236Z,42.10
2019-01-24T23:58:45.359Z,45.20
